Time;durP1;ratioP1;P1;durP2;ratioP2;P2;SDS_P1;SDS_P2;PMS_P1;PMS_P2;Temp;Humidity;BMP_temperature;BMP_pressure;BME280_temperature;BME280_humidity;BME280_pressure;Samples;Min_cycle;Max_cycle;Signal;HPM_P1;HPM_P2
2023/03/28 00:03:56;;;;;;;12.75;5.93;;;;;;;;;;8319772;28;20626;-82
2023/03/28 00:07:59;;;;;;;12.05;6.38;;;;;;;;;;8320456;28;20048;-80
2023/03/28 00:12:02;;;;;;;14.98;6.25;;;;;;;;;;8319586;28;20042;-81
2023/03/28 00:16:11;;;;;;;11.93;5.47;;;;;;;;;;8333476;28;20052;-81
2023/03/28 00:20:14;;;;;;;20.88;5.95;;;;;;;;;;8319352;28;20111;-79
2023/03/28 00:24:20;;;;;;;13.27;5.60;;;;;;;;;;8306724;28;20049;-84
2023/03/28 00:28:23;;;;;;;14.40;5.53;;;;;;;;;;8298181;28;20413;-78
2023/03/28 00:32:27;;;;;;;16.83;5.93;;;;;;;;;;8301252;28;20054;-80
2023/03/28 00:36:31;;;;;;;14.52;5.25;;;;;;;;;;8305203;28;20065;-80
2023/03/28 00:40:37;;;;;;;11.93;4.72;;;;;;;;;;8319280;28;20593;-81
2023/03/28 00:44:44;;;;;;;14.75;4.88;;;;;;;;;;8315842;28;20046;-85
2023/03/28 00:48:52;;;;;;;11.88;5.18;;;;;;;;;;8299744;28;20053;-83
2023/03/28 00:53:00;;;;;;;12.07;5.53;;;;;;;;;;8313875;28;20060;-84
2023/03/28 00:57:03;;;;;;;14.18;4.55;;;;;;;;;;8309510;28;20045;-84
2023/03/28 01:01:07;;;;;;;10.45;4.43;;;;;;;;;;8314882;28;20049;-82
2023/03/28 01:05:13;;;;;;;14.52;4.70;;;;;;;;;;8305061;28;20473;-82
2023/03/28 01:09:18;;;;;;;11.45;5.18;;;;;;;;;;8304586;28;20591;-82
2023/03/28 01:13:26;;;;;;;9.98;5.00;;;;;;;;;;8322697;28;20060;-86
2023/03/28 01:17:29;;;;;;;12.55;5.07;;;;;;;;;;8299858;28;20555;-80
2023/03/28 01:21:55;;;;;;;9.27;4.55;;;;;;;;;;8314449;28;20057;-80
2023/03/28 01:26:32;;;;;;;9.15;4.93;;;;;;;;;;8315259;28;20401;-80
2023/03/28 01:31:00;;;;;;;16.25;5.82;;;;;;;;;;8321890;28;20076;-80
2023/03/28 01:35:40;;;;;;;11.05;5.57;;;;;;;;;;8303666;28;20053;-81
2023/03/28 01:39:56;;;;;;;12.20;4.78;;;;;;;;;;8296687;28;20148;-80
2023/03/28 01:44:09;;;;;;;13.38;5.82;;;;;;;;;;8316951;28;20049;-81
2023/03/28 01:48:22;;;;;;;19.33;6.60;;;;;;;;;;8305354;28;20049;-79
2023/03/28 01:52:31;;;;;;;15.43;7.38;;;;;;;;;;8311257;28;20787;-78
2023/03/28 01:56:40;;;;;;;15.30;7.55;;;;;;;;;;8313615;28;20468;-81
2023/03/28 02:00:46;;;;;;;20.15;8.05;;;;;;;;;;8314329;28;20553;-79
2023/03/28 02:04:52;;;;;;;21.20;8.45;;;;;;;;;;8311394;28;20045;-81
2023/03/28 02:08:57;;;;;;;22.50;7.75;;;;;;;;;;8321982;28;20069;-80
2023/03/28 02:13:05;;;;;;;14.18;6.22;;;;;;;;;;8324986;28;20068;-79
2023/03/28 02:17:14;;;;;;;17.15;7.65;;;;;;;;;;8311350;28;20042;-81
2023/03/28 02:21:21;;;;;;;15.77;6.72;;;;;;;;;;8318019;28;20045;-77
2023/03/28 02:25:25;;;;;;;16.83;6.35;;;;;;;;;;8316964;28;20041;-80
2023/03/28 02:29:30;;;;;;;14.38;7.00;;;;;;;;;;8304974;28;20103;-84
2023/03/28 02:33:37;;;;;;;13.18;6.32;;;;;;;;;;8310163;28;20440;-82
2023/03/28 02:37:49;;;;;;;43.03;13.20;;;;;;;;;;8310264;28;20399;-79
2023/03/28 02:42:06;;;;;;;164.77;42.28;;;;;;;;;;8303992;28;20549;-78
2023/03/28 02:46:28;;;;;;;46.33;14.05;;;;;;;;;;8309765;28;20056;-78
2023/03/28 02:50:36;;;;;;;106.05;29.77;;;;;;;;;;8327288;28;20037;-78
2023/03/28 02:54:48;;;;;;;63.97;22.50;;;;;;;;;;8329873;28;20045;-78
2023/03/28 02:58:55;;;;;;;43.83;16.05;;;;;;;;;;8330176;28;20052;-79
2023/03/28 03:03:00;;;;;;;31.85;13.43;;;;;;;;;;8320904;28;20197;-80
2023/03/28 03:07:03;;;;;;;26.10;11.30;;;;;;;;;;8330218;28;20041;-79
2023/03/28 03:11:06;;;;;;;21.27;10.25;;;;;;;;;;8329510;28;20045;-80
2023/03/28 03:15:15;;;;;;;31.17;13.48;;;;;;;;;;8329626;28;20104;-78
2023/03/28 03:19:20;;;;;;;38.95;17.85;;;;;;;;;;8311614;28;20046;-78
2023/03/28 03:23:23;;;;;;;65.85;29.20;;;;;;;;;;8317707;28;20052;-78
2023/03/28 03:27:26;;;;;;;57.13;28.15;;;;;;;;;;8314970;28;20076;-80
2023/03/28 03:31:29;;;;;;;49.45;21.45;;;;;;;;;;8305217;28;20054;-82
2023/03/28 03:35:33;;;;;;;29.67;13.23;;;;;;;;;;8301728;28;20395;-84
2023/03/28 03:39:36;;;;;;;27.52;14.27;;;;;;;;;;8323244;28;20053;-83
2023/03/28 03:43:39;;;;;;;29.92;15.45;;;;;;;;;;8313778;28;20497;-80
2023/03/28 03:47:41;;;;;;;36.17;16.17;;;;;;;;;;8306926;28;20071;-81
2023/03/28 03:51:46;;;;;;;50.53;25.00;;;;;;;;;;8297448;28;20052;-81
2023/03/28 03:55:49;;;;;;;36.15;18.92;;;;;;;;;;8304623;28;20494;-82
2023/03/28 03:59:52;;;;;;;48.88;23.75;;;;;;;;;;8308707;28;20052;-81
2023/03/28 04:03:55;;;;;;;64.10;29.25;;;;;;;;;;8313146;28;20054;-80
2023/03/28 04:08:00;;;;;;;46.53;23.15;;;;;;;;;;8319081;28;20045;-81
2023/03/28 04:12:03;;;;;;;33.00;17.38;;;;;;;;;;8325584;28;20049;-81
2023/03/28 04:16:07;;;;;;;26.65;12.18;;;;;;;;;;8328313;28;20128;-80
2023/03/28 04:20:13;;;;;;;25.02;11.85;;;;;;;;;;8329109;28;20475;-80
2023/03/28 04:24:19;;;;;;;29.80;12.90;;;;;;;;;;8318753;28;20486;-80
2023/03/28 04:28:26;;;;;;;28.70;13.55;;;;;;;;;;8328340;28;20073;-81
2023/03/28 04:32:34;;;;;;;28.23;15.43;;;;;;;;;;8328671;28;20590;-79
2023/03/28 04:36:39;;;;;;;24.83;13.73;;;;;;;;;;8327554;28;20104;-81
2023/03/28 04:40:44;;;;;;;27.88;16.40;;;;;;;;;;8328685;28;20041;-81
2023/03/28 04:44:47;;;;;;;38.33;19.13;;;;;;;;;;8328106;28;20132;-84
2023/03/28 04:48:50;;;;;;;29.00;14.15;;;;;;;;;;8301446;28;20057;-82
2023/03/28 04:52:53;;;;;;;32.45;17.38;;;;;;;;;;8309380;28;20045;-80
2023/03/28 04:56:57;;;;;;;29.90;14.60;;;;;;;;;;8331450;28;20455;-81
2023/03/28 05:01:02;;;;;;;26.08;15.85;;;;;;;;;;8326385;28;20080;-81
2023/03/28 05:05:06;;;;;;;28.77;15.10;;;;;;;;;;8327828;28;20042;-80
2023/03/28 05:09:11;;;;;;;21.85;10.85;;;;;;;;;;8322384;28;20038;-80
2023/03/28 05:13:16;;;;;;;24.95;13.80;;;;;;;;;;8310765;28;20050;-79
2023/03/28 05:17:19;;;;;;;26.27;13.15;;;;;;;;;;8313609;28;20046;-81
2023/03/28 05:21:22;;;;;;;25.17;11.38;;;;;;;;;;8326785;28;20045;-81
2023/03/28 05:25:25;;;;;;;19.13;9.77;;;;;;;;;;8314300;28;20052;-82
2023/03/28 05:29:30;;;;;;;19.85;9.82;;;;;;;;;;8324424;28;20092;-80
2023/03/28 05:33:33;;;;;;;21.33;9.82;;;;;;;;;;8296213;28;20045;-81
2023/03/28 05:37:38;;;;;;;17.77;8.18;;;;;;;;;;8302689;28;20080;-82
2023/03/28 05:41:41;;;;;;;25.30;10.05;;;;;;;;;;8321429;28;20060;-84
2023/03/28 05:45:47;;;;;;;14.63;5.80;;;;;;;;;;8308232;28;20045;-80
2023/03/28 05:49:50;;;;;;;16.50;8.27;;;;;;;;;;8312084;28;20486;-80
2023/03/28 05:53:53;;;;;;;16.58;7.45;;;;;;;;;;8314242;28;20041;-82
2023/03/28 05:57:56;;;;;;;17.42;8.20;;;;;;;;;;8303461;28;20052;-83
2023/03/28 06:02:02;;;;;;;14.52;7.78;;;;;;;;;;8318600;28;20044;-82
2023/03/28 06:06:05;;;;;;;13.65;6.90;;;;;;;;;;8312743;28;20041;-81
2023/03/28 06:10:10;;;;;;;15.23;7.72;;;;;;;;;;8299214;28;20053;-81
2023/03/28 06:14:13;;;;;;;12.90;6.75;;;;;;;;;;8317407;28;20454;-79
2023/03/28 06:18:17;;;;;;;17.40;9.35;;;;;;;;;;8309614;28;20045;-82
2023/03/28 06:22:20;;;;;;;15.05;8.10;;;;;;;;;;8322106;28;20393;-84
2023/03/28 06:26:23;;;;;;;18.13;9.63;;;;;;;;;;8310064;28;20058;-82
2023/03/28 06:30:26;;;;;;;22.73;9.02;;;;;;;;;;8318620;28;20042;-83
2023/03/28 06:34:30;;;;;;;15.27;8.52;;;;;;;;;;8301370;28;20056;-82
2023/03/28 06:38:33;;;;;;;13.38;6.47;;;;;;;;;;8319192;28;20046;-85
2023/03/28 06:42:36;;;;;;;16.23;8.60;;;;;;;;;;8303955;28;20481;-82
2023/03/28 06:46:39;;;;;;;17.83;8.88;;;;;;;;;;8330420;28;20049;-83
2023/03/28 06:50:48;;;;;;;7.07;4.30;;;;;;;;;;8319497;28;20038;-84
2023/03/28 06:54:52;;;;;;;7.18;4.55;;;;;;;;;;8297435;28;20508;-83
2023/03/28 06:58:57;;;;;;;8.18;4.60;;;;;;;;;;8320950;28;20509;-83
2023/03/28 07:03:00;;;;;;;9.93;5.47;;;;;;;;;;8311237;28;20117;-84
2023/03/28 07:07:04;;;;;;;6.50;3.65;;;;;;;;;;8331781;28;20072;-87
2023/03/28 07:11:08;;;;;;;9.73;4.53;;;;;;;;;;8326905;28;20045;-80
2023/03/28 07:15:11;;;;;;;12.38;5.63;;;;;;;;;;8330336;28;20124;-90
2023/03/28 07:19:14;;;;;;;8.02;4.47;;;;;;;;;;8324201;28;20390;-81
2023/03/28 07:23:18;;;;;;;11.05;4.38;;;;;;;;;;8303514;28;20038;-82
2023/03/28 07:27:22;;;;;;;7.55;3.60;;;;;;;;;;8303763;28;20041;-84
2023/03/28 07:31:25;;;;;;;7.25;4.22;;;;;;;;;;8308068;28;20096;-82
2023/03/28 07:35:28;;;;;;;7.20;3.58;;;;;;;;;;8313067;28;20065;-83
2023/03/28 07:39:33;;;;;;;3.88;2.75;;;;;;;;;;8292247;28;20482;-88
2023/03/28 07:43:37;;;;;;;8.25;4.05;;;;;;;;;;8304367;28;20493;-82
2023/03/28 07:47:40;;;;;;;7.32;3.65;;;;;;;;;;8304814;28;20052;-85
2023/03/28 07:51:43;;;;;;;10.70;4.65;;;;;;;;;;8323865;28;20498;-82
2023/03/28 07:55:49;;;;;;;6.40;3.25;;;;;;;;;;8318800;28;20489;-80
2023/03/28 07:59:52;;;;;;;8.75;4.13;;;;;;;;;;8304549;28;20056;-86
2023/03/28 08:03:55;;;;;;;5.65;3.13;;;;;;;;;;8325982;28;20474;-82
2023/03/28 08:07:58;;;;;;;8.45;4.80;;;;;;;;;;8302600;28;20042;-81
2023/03/28 08:12:02;;;;;;;9.13;4.80;;;;;;;;;;8307194;28;20052;-81
2023/03/28 08:16:06;;;;;;;11.32;5.75;;;;;;;;;;8294604;28;20046;-82
2023/03/28 08:20:10;;;;;;;7.03;4.13;;;;;;;;;;8302446;28;20520;-82
2023/03/28 08:24:13;;;;;;;14.93;6.18;;;;;;;;;;8292016;28;20045;-81
2023/03/28 08:28:17;;;;;;;8.45;3.80;;;;;;;;;;8318232;28;20048;-82
2023/03/28 08:32:20;;;;;;;8.13;3.70;;;;;;;;;;8309359;28;20049;-81
2023/03/28 08:36:26;;;;;;;17.20;8.00;;;;;;;;;;8335061;28;20068;-81
2023/03/28 08:40:29;;;;;;;13.05;5.50;;;;;;;;;;8309859;28;20394;-85
2023/03/28 08:44:51;;;;;;;6.95;4.57;;;;;;;;;;8326097;28;20505;-82
2023/03/28 08:48:55;;;;;;;10.17;5.43;;;;;;;;;;8313910;28;20049;-80
2023/03/28 08:52:58;;;;;;;10.38;6.10;;;;;;;;;;8334547;28;20102;-83
2023/03/28 08:57:04;;;;;;;9.15;5.50;;;;;;;;;;8335150;28;20121;-81
2023/03/28 09:01:10;;;;;;;11.23;6.30;;;;;;;;;;8333924;28;20049;-81
2023/03/28 09:05:15;;;;;;;10.93;6.70;;;;;;;;;;8313686;28;20059;-81
2023/03/28 09:09:37;;;;;;;8.27;4.82;;;;;;;;;;8329007;28;20041;-81
2023/03/28 09:13:47;;;;;;;14.98;6.57;;;;;;;;;;8319181;28;20058;-79
2023/03/28 09:18:01;;;;;;;11.93;6.88;;;;;;;;;;8310187;28;20049;-79
2023/03/28 09:22:16;;;;;;;9.02;5.03;;;;;;;;;;8332614;28;20049;-86
2023/03/28 09:26:24;;;;;;;10.88;5.72;;;;;;;;;;8333680;28;20071;-82
2023/03/28 09:30:31;;;;;;;8.07;5.28;;;;;;;;;;8333595;28;20048;-84
2023/03/28 09:34:39;;;;;;;15.00;7.15;;;;;;;;;;8302300;28;20046;-80
2023/03/28 09:38:47;;;;;;;7.35;3.95;;;;;;;;;;8313771;28;20080;-81
2023/03/28 09:43:01;;;;;;;4.65;2.15;;;;;;;;;;8317902;28;20565;-81
2023/03/28 09:47:08;;;;;;;8.00;3.78;;;;;;;;;;8323466;28;20050;-81
2023/03/28 09:51:17;;;;;;;4.65;3.53;;;;;;;;;;8309615;28;20060;-90
2023/03/28 09:55:22;;;;;;;5.20;3.65;;;;;;;;;;8322352;28;20142;-85
2023/03/28 09:59:26;;;;;;;5.47;2.88;;;;;;;;;;8320340;28;20401;-80
2023/03/28 10:03:33;;;;;;;3.92;2.85;;;;;;;;;;8333115;28;20913;-81
2023/03/28 10:07:44;;;;;;;8.80;4.70;;;;;;;;;;8315780;28;20064;-86
2023/03/28 10:11:49;;;;;;;5.82;3.22;;;;;;;;;;8316285;28;20478;-81
2023/03/28 10:15:56;;;;;;;12.20;6.68;;;;;;;;;;8318150;28;20042;-81
2023/03/28 10:20:02;;;;;;;18.60;8.38;;;;;;;;;;8330666;28;20124;-84
2023/03/28 10:24:08;;;;;;;7.53;4.03;;;;;;;;;;8304823;28;20069;-83
2023/03/28 10:28:16;;;;;;;10.45;5.78;;;;;;;;;;8319138;28;20049;-91
2023/03/28 10:32:26;;;;;;;10.23;4.57;;;;;;;;;;8299473;28;20224;-90
2023/03/28 10:36:31;;;;;;;4.15;3.00;;;;;;;;;;8300657;28;20070;-82
2023/03/28 10:40:36;;;;;;;7.38;4.43;;;;;;;;;;8314515;28;20134;-81
2023/03/28 10:44:39;;;;;;;8.38;5.03;;;;;;;;;;8299378;28;20490;-83
2023/03/28 10:48:48;;;;;;;10.18;4.10;;;;;;;;;;8331089;28;20061;-81
2023/03/28 10:53:00;;;;;;;7.80;4.38;;;;;;;;;;8327300;28;20049;-80
2023/03/28 10:57:12;;;;;;;10.50;4.05;;;;;;;;;;8312717;28;20512;-81
2023/03/28 11:01:19;;;;;;;5.22;3.85;;;;;;;;;;8305621;28;20042;-87
2023/03/28 11:05:32;;;;;;;5.20;2.78;;;;;;;;;;8302934;28;20053;-82
2023/03/28 11:09:41;;;;;;;4.40;3.08;;;;;;;;;;8330880;28;20151;-82
2023/03/28 11:13:56;;;;;;;8.90;3.67;;;;;;;;;;8328786;28;20068;-83
2023/03/28 11:18:12;;;;;;;5.90;3.50;;;;;;;;;;8314383;28;20100;-82
2023/03/28 11:22:24;;;;;;;3.65;2.10;;;;;;;;;;8312755;28;20045;-81
2023/03/28 11:26:40;;;;;;;4.55;3.08;;;;;;;;;;8330010;28;20053;-81
2023/03/28 11:30:50;;;;;;;5.47;3.10;;;;;;;;;;8310606;28;20045;-82
2023/03/28 11:35:05;;;;;;;3.33;2.25;;;;;;;;;;8323076;28;20048;-82
2023/03/28 11:39:15;;;;;;;5.38;3.50;;;;;;;;;;8306014;28;20052;-81
2023/03/28 11:43:27;;;;;;;3.65;2.35;;;;;;;;;;8303879;28;20117;-81
2023/03/28 11:47:37;;;;;;;2.38;1.83;;;;;;;;;;8320089;28;20128;-80
2023/03/28 11:51:45;;;;;;;5.85;2.97;;;;;;;;;;8304697;28;20049;-83
2023/03/28 11:55:52;;;;;;;3.70;2.05;;;;;;;;;;8324515;28;20044;-81
2023/03/28 12:00:04;;;;;;;2.97;2.10;;;;;;;;;;8318703;28;20811;-91
2023/03/28 12:04:12;;;;;;;4.43;2.90;;;;;;;;;;8317712;28;20117;-82
2023/03/28 12:08:20;;;;;;;2.05;1.88;;;;;;;;;;8314490;28;20133;-81
2023/03/28 12:12:29;;;;;;;4.30;2.97;;;;;;;;;;8325859;28;20064;-81
2023/03/28 12:16:37;;;;;;;4.75;2.55;;;;;;;;;;8321313;28;20141;-82
2023/03/28 12:20:50;;;;;;;6.22;2.35;;;;;;;;;;8336224;28;20045;-81
2023/03/28 12:24:59;;;;;;;3.10;1.90;;;;;;;;;;8336357;28;20175;-78
2023/03/28 12:29:09;;;;;;;4.88;2.60;;;;;;;;;;8310769;28;20052;-91
2023/03/28 12:33:20;;;;;;;3.10;2.30;;;;;;;;;;8298101;28;20050;-81
2023/03/28 12:37:30;;;;;;;2.10;1.90;;;;;;;;;;8305793;28;20046;-80
2023/03/28 12:41:36;;;;;;;2.47;1.90;;;;;;;;;;8329696;28;20473;-81
2023/03/28 12:45:42;;;;;;;3.05;2.17;;;;;;;;;;8319875;28;20045;-81
2023/03/28 12:49:49;;;;;;;2.25;2.05;;;;;;;;;;8309883;28;20160;-80
2023/03/28 12:54:21;;;;;;;8.90;3.40;;;;;;;;;;8281723;28;20095;-85
2023/03/28 12:58:27;;;;;;;5.10;3.17;;;;;;;;;;8296616;28;20089;-81
2023/03/28 13:02:36;;;;;;;3.00;2.45;;;;;;;;;;8326782;28;20049;-80
2023/03/28 13:06:46;;;;;;;5.43;2.55;;;;;;;;;;8323624;28;20041;-79
2023/03/28 13:11:05;;;;;;;4.75;2.65;;;;;;;;;;8306927;28;20097;-81
2023/03/28 13:15:30;;;;;;;3.22;1.98;;;;;;;;;;8293074;28;20046;-82
2023/03/28 13:19:46;;;;;;;2.08;1.88;;;;;;;;;;8311271;28;20489;-82
2023/03/28 13:23:50;;;;;;;7.65;3.35;;;;;;;;;;8320708;28;20048;-82
2023/03/28 13:27:56;;;;;;;4.10;2.30;;;;;;;;;;8317848;28;20108;-82
2023/03/28 13:32:05;;;;;;;4.43;2.35;;;;;;;;;;8328866;28;20041;-82
2023/03/28 13:36:31;;;;;;;5.82;3.38;;;;;;;;;;8304992;28;20054;-82
2023/03/28 13:40:53;;;;;;;5.07;3.30;;;;;;;;;;8324912;28;20054;-81
2023/03/28 13:45:01;;;;;;;5.65;3.22;;;;;;;;;;8327650;28;20164;-85
2023/03/28 13:49:07;;;;;;;5.53;2.55;;;;;;;;;;8306698;28;20060;-84
2023/03/28 13:53:11;;;;;;;4.18;2.83;;;;;;;;;;8303871;28;20042;-84
2023/03/28 13:57:17;;;;;;;4.75;3.10;;;;;;;;;;8283293;28;20039;-84
2023/03/28 14:01:24;;;;;;;7.53;4.07;;;;;;;;;;8307544;28;20084;-82
2023/03/28 14:05:28;;;;;;;5.32;2.97;;;;;;;;;;8286876;28;20056;-81
2023/03/28 14:09:34;;;;;;;13.43;5.43;;;;;;;;;;8306077;28;20045;-83
2023/03/28 14:13:38;;;;;;;8.80;3.80;;;;;;;;;;8310464;28;20065;-83
2023/03/28 14:17:42;;;;;;;3.83;2.60;;;;;;;;;;8288088;28;20129;-83
2023/03/28 14:21:45;;;;;;;9.00;3.97;;;;;;;;;;8316666;28;20053;-82
2023/03/28 14:25:49;;;;;;;4.82;2.55;;;;;;;;;;8328784;28;20052;-82
2023/03/28 14:29:52;;;;;;;3.30;2.03;;;;;;;;;;8327767;28;20091;-83
2023/03/28 14:33:57;;;;;;;4.78;2.85;;;;;;;;;;8303865;28;20056;-82
2023/03/28 14:38:01;;;;;;;4.60;2.40;;;;;;;;;;8328503;28;20156;-82
2023/03/28 14:42:07;;;;;;;11.48;4.97;;;;;;;;;;8330403;28;20051;-81
2023/03/28 14:46:11;;;;;;;9.43;4.60;;;;;;;;;;8330504;28;20098;-82
2023/03/28 14:50:18;;;;;;;7.65;4.13;;;;;;;;;;8318045;28;20582;-82
2023/03/28 14:54:26;;;;;;;6.15;3.70;;;;;;;;;;8313733;28;20137;-84
2023/03/28 14:58:30;;;;;;;6.80;3.30;;;;;;;;;;8295025;28;20049;-81
2023/03/28 15:02:37;;;;;;;7.78;3.97;;;;;;;;;;8292899;28;20064;-82
2023/03/28 15:06:42;;;;;;;9.07;4.80;;;;;;;;;;8297146;28;20475;-86
2023/03/28 15:10:49;;;;;;;10.13;4.05;;;;;;;;;;8301227;28;20046;-83
2023/03/28 15:14:53;;;;;;;7.20;3.50;;;;;;;;;;8310297;28;20124;-82
2023/03/28 15:19:05;;;;;;;11.13;5.10;;;;;;;;;;8307359;28;20128;-82
2023/03/28 15:23:17;;;;;;;7.57;3.85;;;;;;;;;;8326219;28;20041;-81
2023/03/28 15:27:25;;;;;;;11.75;5.22;;;;;;;;;;8321545;28;20072;-81
2023/03/28 15:31:29;;;;;;;21.38;8.25;;;;;;;;;;8316673;28;20409;-81
2023/03/28 15:35:37;;;;;;;15.38;8.23;;;;;;;;;;8310112;28;20601;-83
2023/03/28 15:39:42;;;;;;;10.60;5.53;;;;;;;;;;8313480;28;20124;-84
2023/03/28 15:43:59;;;;;;;12.40;5.47;;;;;;;;;;8308463;28;20052;-81
2023/03/28 15:48:03;;;;;;;7.72;5.40;;;;;;;;;;8315868;28;20088;-82
2023/03/28 15:52:15;;;;;;;9.52;5.43;;;;;;;;;;8327212;28;20050;-81
2023/03/28 15:56:23;;;;;;;;;;;;;;;;;;8309889;28;20037;-82
2023/03/28 16:00:41;;;;;;;11.13;4.38;;;;;;;;;;8302892;28;19983;-81
2023/03/28 16:04:57;;;;;;;13.57;4.97;;;;;;;;;;8282021;28;20053;-82
2023/03/28 16:09:15;;;;;;;10.85;5.57;;;;;;;;;;8280792;28;20478;-82
2023/03/28 16:13:20;;;;;;;11.90;5.25;;;;;;;;;;8307891;28;20104;-83
2023/03/28 16:17:24;;;;;;;11.27;6.75;;;;;;;;;;8304403;28;20053;-85
2023/03/28 16:21:27;;;;;;;17.10;7.00;;;;;;;;;;8299494;28;20060;-81
2023/03/28 16:25:30;;;;;;;19.95;7.50;;;;;;;;;;8298073;28;20096;-81
2023/03/28 16:29:34;;;;;;;6.38;3.08;;;;;;;;;;8300678;28;20046;-80
2023/03/28 16:33:37;;;;;;;9.40;5.05;;;;;;;;;;8313407;28;20413;-83
2023/03/28 16:37:40;;;;;;;8.65;4.32;;;;;;;;;;8319873;28;20053;-82
2023/03/28 16:41:44;;;;;;;10.55;5.60;;;;;;;;;;8309877;28;20425;-82
2023/03/28 16:45:49;;;;;;;4.75;2.53;;;;;;;;;;8304378;28;20065;-83
2023/03/28 16:49:52;;;;;;;5.88;3.42;;;;;;;;;;8304735;28;20049;-82
2023/03/28 16:53:56;;;;;;;10.27;5.20;;;;;;;;;;8314700;28;20052;-82
2023/03/28 16:57:59;;;;;;;10.35;4.22;;;;;;;;;;8318566;28;20485;-82
2023/03/28 17:02:03;;;;;;;7.57;3.40;;;;;;;;;;8313525;28;20045;-81
2023/03/28 17:06:10;;;;;;;8.50;4.20;;;;;;;;;;8309175;28;20045;-83
2023/03/28 17:10:13;;;;;;;7.55;4.00;;;;;;;;;;8312374;28;20096;-82
2023/03/28 17:14:16;;;;;;;4.75;3.22;;;;;;;;;;8331808;28;20041;-82
2023/03/28 17:18:21;;;;;;;4.18;2.72;;;;;;;;;;8320275;28;20587;-82
2023/03/28 17:22:25;;;;;;;7.13;2.65;;;;;;;;;;8333499;28;20053;-82
2023/03/28 17:26:28;;;;;;;5.03;2.60;;;;;;;;;;8333479;28;20580;-80
2023/03/28 17:30:32;;;;;;;11.05;5.20;;;;;;;;;;8333393;28;20051;-81
2023/03/28 17:34:38;;;;;;;9.88;4.90;;;;;;;;;;8333142;28;20493;-80
2023/03/28 17:38:42;;;;;;;10.05;4.57;;;;;;;;;;8332193;28;20161;-82
2023/03/28 17:42:49;;;;;;;20.20;8.18;;;;;;;;;;8331656;28;20405;-80
2023/03/28 17:46:55;;;;;;;16.55;6.63;;;;;;;;;;8332389;28;20073;-82
2023/03/28 17:51:03;;;;;;;13.00;5.45;;;;;;;;;;8332593;28;20041;-82
2023/03/28 17:55:08;;;;;;;12.05;4.97;;;;;;;;;;8308553;28;20046;-80
2023/03/28 17:59:12;;;;;;;11.90;6.10;;;;;;;;;;8332388;28;20076;-80
2023/03/28 18:03:17;;;;;;;14.70;6.47;;;;;;;;;;8332663;28;20037;-81
2023/03/28 18:07:23;;;;;;;12.77;5.45;;;;;;;;;;8332363;28;20119;-82
2023/03/28 18:11:28;;;;;;;14.70;6.95;;;;;;;;;;8331670;28;20044;-82
2023/03/28 18:15:35;;;;;;;19.70;9.02;;;;;;;;;;8331126;28;20045;-82
2023/03/28 18:19:39;;;;;;;16.92;6.72;;;;;;;;;;8331272;28;20152;-81
2023/03/28 18:23:47;;;;;;;15.55;7.00;;;;;;;;;;8331049;28;20505;-79
2023/03/28 18:27:51;;;;;;;11.57;5.65;;;;;;;;;;8330877;28;20045;-82
2023/03/28 18:31:55;;;;;;;14.23;6.60;;;;;;;;;;8331229;28;20042;-82
2023/03/28 18:36:00;;;;;;;11.57;5.40;;;;;;;;;;8330784;28;20061;-82
2023/03/28 18:40:09;;;;;;;18.90;8.55;;;;;;;;;;8331233;28;20513;-80
2023/03/28 18:44:16;;;;;;;16.25;7.60;;;;;;;;;;8330952;28;20052;-82
2023/03/28 18:48:20;;;;;;;15.05;6.88;;;;;;;;;;8329838;28;20041;-83
2023/03/28 18:52:25;;;;;;;15.25;7.50;;;;;;;;;;8330957;28;20060;-80
2023/03/28 18:56:32;;;;;;;14.35;6.18;;;;;;;;;;8325541;28;20053;-82
2023/03/28 19:00:37;;;;;;;16.05;7.25;;;;;;;;;;8322811;28;20038;-81
2023/03/28 19:04:42;;;;;;;24.42;9.20;;;;;;;;;;8331113;28;20061;-83
2023/03/28 19:08:49;;;;;;;30.88;9.10;;;;;;;;;;8330080;28;20049;-81
2023/03/28 19:12:55;;;;;;;21.63;8.85;;;;;;;;;;8317502;28;20055;-81
2023/03/28 19:17:01;;;;;;;20.63;8.38;;;;;;;;;;8288235;28;20129;-81
2023/03/28 19:21:09;;;;;;;22.30;9.75;;;;;;;;;;8327442;28;20041;-82
2023/03/28 19:25:15;;;;;;;23.38;9.60;;;;;;;;;;8297633;28;20117;-79
2023/03/28 19:29:22;;;;;;;21.77;8.93;;;;;;;;;;8295873;28;20092;-81
2023/03/28 19:33:28;;;;;;;23.30;9.35;;;;;;;;;;8288661;28;20688;-78
2023/03/28 19:37:35;;;;;;;22.45;10.02;;;;;;;;;;8306876;28;20076;-81
2023/03/28 19:41:41;;;;;;;19.48;8.13;;;;;;;;;;8327439;28;20045;-82
2023/03/28 19:45:50;;;;;;;20.40;7.50;;;;;;;;;;8329568;28;20477;-80
2023/03/28 19:49:54;;;;;;;15.05;7.47;;;;;;;;;;8327116;28;20604;-80
2023/03/28 19:54:02;;;;;;;19.33;7.28;;;;;;;;;;8328046;28;20045;-79
2023/03/28 19:58:09;;;;;;;24.60;7.88;;;;;;;;;;8327812;28;20045;-78
2023/03/28 20:02:14;;;;;;;24.13;7.43;;;;;;;;;;8294325;28;20069;-81
2023/03/28 20:06:19;;;;;;;21.55;7.70;;;;;;;;;;8328738;28;20493;-79
2023/03/28 20:10:24;;;;;;;21.60;7.47;;;;;;;;;;8329140;28;20052;-81
2023/03/28 20:14:29;;;;;;;20.35;7.82;;;;;;;;;;8328309;28;20065;-81
2023/03/28 20:18:36;;;;;;;20.38;7.88;;;;;;;;;;8329123;28;20056;-79
2023/03/28 20:22:40;;;;;;;27.63;8.77;;;;;;;;;;8334218;28;20054;-80
2023/03/28 20:26:44;;;;;;;25.88;9.65;;;;;;;;;;8335266;28;20069;-81
2023/03/28 20:30:48;;;;;;;21.20;8.43;;;;;;;;;;8335101;28;20049;-82
2023/03/28 20:34:53;;;;;;;14.18;5.82;;;;;;;;;;8334383;28;20133;-79
2023/03/28 20:38:57;;;;;;;21.25;7.45;;;;;;;;;;8310632;28;20073;-81
2023/03/28 20:43:01;;;;;;;17.10;7.38;;;;;;;;;;8334494;28;20049;-81
2023/03/28 20:47:06;;;;;;;18.88;8.13;;;;;;;;;;8327354;28;20512;-81
2023/03/28 20:51:15;;;;;;;18.65;9.15;;;;;;;;;;8302851;28;20050;-81
2023/03/28 20:55:18;;;;;;;19.45;8.40;;;;;;;;;;8308950;28;20397;-79
2023/03/28 20:59:23;;;;;;;19.30;7.85;;;;;;;;;;8332937;28;20086;-80
2023/03/28 21:03:38;;;;;;;15.30;7.28;;;;;;;;;;8334239;28;20443;-80
2023/03/28 21:07:42;;;;;;;21.35;7.07;;;;;;;;;;8334038;28;20054;-82
2023/03/28 21:11:45;;;;;;;15.55;6.38;;;;;;;;;;8334282;28;20460;-80
2023/03/28 21:15:51;;;;;;;14.95;6.30;;;;;;;;;;8334098;28;20406;-78
2023/03/28 21:19:54;;;;;;;13.50;7.03;;;;;;;;;;8333763;28;20046;-80
2023/03/28 21:23:59;;;;;;;13.07;4.88;;;;;;;;;;8333498;28;20124;-84
2023/03/28 21:28:02;;;;;;;19.23;8.02;;;;;;;;;;8331985;28;20053;-83
2023/03/28 21:32:05;;;;;;;14.45;5.18;;;;;;;;;;8320071;28;20049;-86
2023/03/28 21:36:09;;;;;;;16.48;7.47;;;;;;;;;;8332883;28;20068;-80
2023/03/28 21:40:14;;;;;;;21.33;7.22;;;;;;;;;;8333001;28;20045;-79
2023/03/28 21:44:17;;;;;;;20.55;7.82;;;;;;;;;;8332997;28;20053;-82
2023/03/28 21:48:20;;;;;;;10.70;5.43;;;;;;;;;;8332645;28;20050;-79
2023/03/28 21:52:23;;;;;;;20.80;8.73;;;;;;;;;;8332886;28;20048;-84
2023/03/28 21:56:27;;;;;;;17.10;6.53;;;;;;;;;;8332833;28;20335;-80
2023/03/28 22:00:30;;;;;;;14.60;6.22;;;;;;;;;;8332264;28;20060;-81
2023/03/28 22:04:35;;;;;;;14.52;5.85;;;;;;;;;;8307152;28;20132;-81
2023/03/28 22:08:38;;;;;;;15.50;6.07;;;;;;;;;;8332620;28;20489;-78
2023/03/28 22:12:43;;;;;;;14.52;5.50;;;;;;;;;;8331349;28;20108;-81
2023/03/28 22:16:46;;;;;;;13.63;5.63;;;;;;;;;;8331810;28;20049;-79
2023/03/28 22:20:51;;;;;;;13.48;5.20;;;;;;;;;;8331404;28;20045;-80
2023/03/28 22:24:57;;;;;;;14.25;5.82;;;;;;;;;;8332519;28;20436;-81
2023/03/28 22:29:02;;;;;;;14.30;6.25;;;;;;;;;;8331369;28;20478;-80
2023/03/28 22:33:06;;;;;;;16.10;5.55;;;;;;;;;;8331577;28;20056;-84
2023/03/28 22:37:08;;;;;;;16.27;7.00;;;;;;;;;;8329402;28;20532;-79
2023/03/28 22:41:12;;;;;;;20.55;8.20;;;;;;;;;;8330838;28;20478;-83
2023/03/28 22:45:17;;;;;;;21.42;8.93;;;;;;;;;;8329633;28;20068;-80
2023/03/28 22:49:22;;;;;;;32.20;12.10;;;;;;;;;;8330820;28;20115;-81
2023/03/28 22:53:25;;;;;;;31.25;12.25;;;;;;;;;;8317264;28;20041;-80
2023/03/28 22:57:29;;;;;;;26.83;10.52;;;;;;;;;;8330667;28;20103;-79
2023/03/28 23:01:34;;;;;;;23.73;9.75;;;;;;;;;;8330124;28;20113;-79
2023/03/28 23:05:37;;;;;;;25.15;10.32;;;;;;;;;;8330190;28;20053;-81
2023/03/28 23:09:42;;;;;;;24.40;10.40;;;;;;;;;;8330242;28;20053;-79
2023/03/28 23:13:45;;;;;;;21.40;10.43;;;;;;;;;;8329726;28;20505;-80
2023/03/28 23:17:49;;;;;;;25.40;10.02;;;;;;;;;;8329776;28;20049;-80
2023/03/28 23:21:53;;;;;;;22.63;8.82;;;;;;;;;;8329481;28;20095;-80
2023/03/28 23:25:56;;;;;;;19.27;8.75;;;;;;;;;;8329913;28;20094;-79
2023/03/28 23:29:59;;;;;;;15.90;7.53;;;;;;;;;;8329817;28;20061;-78
2023/03/28 23:34:03;;;;;;;27.65;12.68;;;;;;;;;;8329936;28;20045;-84
2023/03/28 23:38:06;;;;;;;25.80;9.43;;;;;;;;;;8329069;28;20057;-79
2023/03/28 23:42:09;;;;;;;18.35;9.05;;;;;;;;;;8329480;28;20140;-81
2023/03/28 23:46:12;;;;;;;15.20;8.23;;;;;;;;;;8329164;28;20057;-78
2023/03/28 23:50:17;;;;;;;19.23;8.05;;;;;;;;;;8329573;28;20045;-79
2023/03/28 23:54:19;;;;;;;15.75;7.43;;;;;;;;;;8328949;28;20401;-82
2023/03/28 23:58:22;;;;;;;17.55;8.50;;;;;;;;;;8329300;28;20405;-80
